Time;durP1;ratioP1;P1;durP2;ratioP2;P2;SDS_P1;SDS_P2;PMS_P1;PMS_P2;Temp;Humidity;BMP_temperature;BMP_pressure;BME280_temperature;BME280_humidity;BME280_pressure;Samples;Min_cycle;Max_cycle;Signal;HPM_P1;HPM_P2
2021/01/17 00:02:17;;;;;;;12.25;5.90;;;;;;;13.23;21.73;97694.22;5087729;28;20034;-77
2021/01/17 00:04:43;;;;;;;15.75;6.88;;;;;;;13.34;21.61;97683.34;5082719;28;20498;-77
2021/01/17 00:07:09;;;;;;;11.65;5.05;;;;;;;15.00;19.93;97684.06;5087704;28;20381;-76
2021/01/17 00:09:35;;;;;;;11.70;6.30;;;;;;;15.30;19.68;97675.59;5082727;28;20040;-77
2021/01/17 00:12:04;;;;;;;10.80;5.25;;;;;;;14.88;19.76;97662.25;5090155;28;20072;-77
2021/01/17 00:14:31;;;;;;;11.02;4.70;;;;;;;15.77;19.27;97664.44;5090202;28;20028;-76
2021/01/17 00:16:59;;;;;;;14.20;6.18;;;;;;;13.67;21.37;97686.97;5088288;28;20107;-77
2021/01/17 00:19:25;;;;;;;11.50;5.32;;;;;;;12.95;22.63;97675.22;5087315;28;20051;-76
2021/01/17 00:21:51;;;;;;;10.52;4.85;;;;;;;12.89;22.46;97676.72;5091232;28;20059;-77
2021/01/17 00:24:17;;;;;;;12.13;5.63;;;;;;;14.32;21.10;97670.00;5089360;28;20565;-77
2021/01/17 00:26:43;;;;;;;12.00;5.28;;;;;;;14.52;20.51;97663.09;5082023;28;20028;-77
2021/01/17 00:29:09;;;;;;;11.05;5.72;;;;;;;14.12;21.04;97672.13;5083957;28;20028;-76
2021/01/17 00:31:36;;;;;;;12.63;6.13;;;;;;;13.28;22.37;97669.06;5077959;28;20037;-77
2021/01/17 00:34:03;;;;;;;11.88;6.10;;;;;;;14.70;20.66;97652.22;5089291;28;20036;-77
2021/01/17 00:36:36;;;;;;;12.13;5.45;;;;;;;14.60;20.69;97658.44;5089071;28;20028;-77
2021/01/17 00:39:03;;;;;;;11.45;5.40;;;;;;;14.15;21.53;97662.28;5076063;28;20024;-77
2021/01/17 00:41:33;;;;;;;11.25;5.70;;;;;;;14.99;20.85;97651.28;5061409;28;20044;-77
2021/01/17 00:43:59;;;;;;;15.20;6.30;;;;;;;14.67;20.99;97661.28;5086213;28;20480;-77
2021/01/17 00:46:25;;;;;;;9.52;4.85;;;;;;;15.84;19.66;97658.13;5090691;28;20039;-77
2021/01/17 00:48:51;;;;;;;12.50;5.78;;;;;;;15.17;20.28;97654.94;5094848;28;20032;-77
2021/01/17 00:51:19;;;;;;;11.60;5.50;;;;;;;14.77;20.62;97668.88;5083437;28;20032;-77
2021/01/17 00:53:45;;;;;;;10.57;5.32;;;;;;;14.89;20.87;97660.28;5084719;28;20480;-77
2021/01/17 00:56:11;;;;;;;9.60;5.65;;;;;;;15.01;20.53;97658.00;5088835;28;20028;-77
2021/01/17 00:58:37;;;;;;;10.63;5.45;;;;;;;14.38;21.68;97662.97;5093576;28;20483;-77
2021/01/17 01:01:03;;;;;;;16.95;8.80;;;;;;;14.72;20.86;97655.41;5092568;28;20067;-77
2021/01/17 01:03:29;;;;;;;10.80;5.18;;;;;;;14.46;21.40;97662.69;5088018;28;20089;-77
2021/01/17 01:05:55;;;;;;;14.63;6.78;;;;;;;12.65;23.95;97666.09;5089385;28;20033;-76
2021/01/17 01:08:22;;;;;;;11.45;5.88;;;;;;;14.32;21.83;97659.78;5091591;28;20112;-77
2021/01/17 01:10:48;;;;;;;11.70;5.32;;;;;;;13.18;22.83;97664.22;5092128;28;20110;-77
2021/01/17 01:13:14;;;;;;;13.15;5.82;;;;;;;14.17;21.86;97663.50;5064202;28;20522;-77
2021/01/17 01:15:40;;;;;;;11.25;6.00;;;;;;;15.18;20.41;97651.00;5073047;28;20032;-77
2021/01/17 01:18:06;;;;;;;11.30;5.80;;;;;;;15.45;20.30;97655.16;5092662;28;20061;-77
2021/01/17 01:20:32;;;;;;;5.35;3.22;;;;;;;14.42;21.17;97661.06;5084269;28;20039;-77
2021/01/17 01:22:58;;;;;;;9.30;4.78;;;;;;;14.88;20.94;97653.97;5088202;28;20119;-77
2021/01/17 01:25:24;;;;;;;11.68;6.20;;;;;;;12.64;23.55;97678.28;5087784;28;20041;-77
2021/01/17 01:27:50;;;;;;;10.07;5.22;;;;;;;13.52;22.50;97689.91;5063197;28;20376;-77
2021/01/17 01:30:17;;;;;;;12.75;6.50;;;;;;;11.47;25.13;97686.19;5091889;28;20056;-77
2021/01/17 01:32:43;;;;;;;11.45;5.28;;;;;;;11.32;25.79;97695.25;5094624;28;20085;-77
2021/01/17 01:35:09;;;;;;;10.30;5.45;;;;;;;10.79;26.38;97699.50;5087803;28;20032;-77
2021/01/17 01:37:36;;;;;;;15.60;6.57;;;;;;;11.14;26.84;97696.81;5093789;28;20522;-77
2021/01/17 01:40:04;;;;;;;23.63;8.82;;;;;;;9.45;28.63;97703.25;5084549;28;20072;-77
2021/01/17 01:42:30;;;;;;;12.23;5.05;;;;;;;7.64;31.39;97715.53;5086445;28;20024;-77
2021/01/17 01:44:57;;;;;;;12.27;4.85;;;;;;;6.69;33.01;97720.00;5093118;28;20460;-77
2021/01/17 01:47:28;;;;;;;6.97;3.20;;;;;;;9.49;28.91;97715.91;5089114;28;20040;-77
2021/01/17 01:49:55;;;;;;;6.75;3.47;;;;;;;10.38;26.45;97706.28;5082995;28;20071;-77
2021/01/17 01:52:21;;;;;;;13.18;4.18;;;;;;;9.63;27.25;97710.84;5092639;28;20031;-76
2021/01/17 01:54:48;;;;;;;6.18;3.38;;;;;;;10.02;27.37;97713.88;5086569;28;20046;-77
2021/01/17 01:57:15;;;;;;;5.60;2.80;;;;;;;10.95;26.38;97718.72;5092365;28;20028;-77
2021/01/17 01:59:41;;;;;;;5.07;2.42;;;;;;;8.61;28.34;97732.25;5087650;28;20500;-77
2021/01/17 02:02:11;;;;;;;4.93;2.88;;;;;;;9.43;27.29;97730.16;5090283;28;20024;-77
2021/01/17 02:04:37;;;;;;;4.72;2.47;;;;;;;8.83;27.06;97728.28;5092007;28;20032;-77
2021/01/17 02:07:22;;;;;;;4.80;2.25;;;;;;;10.19;25.92;97728.13;5090859;28;20036;-77
2021/01/17 02:09:49;;;;;;;4.13;1.88;;;;;;;9.03;26.95;97736.38;5086384;28;20036;-77
2021/01/17 02:12:29;;;;;;;3.65;1.88;;;;;;;10.79;25.08;97737.94;5089590;28;20028;-77
2021/01/17 02:15:12;;;;;;;3.67;2.20;;;;;;;10.93;24.17;97740.25;5092357;28;20503;-77
2021/01/17 02:17:39;;;;;;;3.22;2.30;;;;;;;11.27;23.85;97736.75;5083856;28;20028;-77
2021/01/17 02:20:25;;;;;;;3.05;1.92;;;;;;;12.73;22.26;97742.16;5090720;28;20506;-77
2021/01/17 02:23:00;;;;;;;3.45;1.95;;;;;;;13.59;20.88;97745.16;5084901;28;20508;-77
2021/01/17 02:25:45;;;;;;;4.70;1.95;;;;;;;14.18;20.06;97738.84;5082648;28;20390;-77
2021/01/17 02:28:17;;;;;;;2.45;1.20;;;;;;;13.08;21.29;97740.06;5092345;28;20032;-77
2021/01/17 02:30:54;;;;;;;4.97;2.30;;;;;;;12.31;22.25;97744.94;5086424;28;20025;-77
2021/01/17 02:33:30;;;;;;;3.90;2.00;;;;;;;12.70;21.83;97745.66;5082770;28;20025;-77
2021/01/17 02:36:17;;;;;;;4.25;2.05;;;;;;;14.13;20.26;97750.22;5087862;28;20035;-77
2021/01/17 02:39:08;;;;;;;3.53;1.92;;;;;;;15.01;19.29;97756.72;5079602;28;20032;-77
2021/01/17 02:41:48;;;;;;;2.95;1.60;;;;;;;14.53;19.70;97753.91;5082263;28;20044;-77
2021/01/17 02:44:15;;;;;;;4.10;2.00;;;;;;;14.96;19.27;97757.88;5088714;28;20039;-77
2021/01/17 02:46:41;;;;;;;3.38;1.98;;;;;;;14.58;19.29;97766.56;5087758;28;20093;-77
2021/01/17 02:49:07;;;;;;;5.57;2.03;;;;;;;14.89;19.26;97762.56;5078553;28;20021;-77
2021/01/17 02:51:33;;;;;;;6.45;3.03;;;;;;;12.30;21.74;97770.03;5085537;28;20037;-77
2021/01/17 02:54:10;;;;;;;7.05;3.60;;;;;;;9.75;25.00;97786.75;5088804;28;20032;-77
2021/01/17 02:56:42;;;;;;;8.38;4.07;;;;;;;6.57;29.10;97792.69;5092768;28;20040;-77
2021/01/17 02:59:13;;;;;;;8.95;4.45;;;;;;;5.72;30.79;97805.25;5084801;28;20042;-77
2021/01/17 03:01:43;;;;;;;9.10;4.63;;;;;;;6.01;30.02;97802.75;5056056;28;20035;-77
2021/01/17 03:04:23;;;;;;;8.95;4.32;;;;;;;6.15;29.69;97811.56;5082742;28;20050;-77
2021/01/17 03:06:50;;;;;;;7.75;4.25;;;;;;;6.97;28.66;97807.66;5070119;28;20029;-77
2021/01/17 03:09:17;;;;;;;8.02;4.55;;;;;;;6.71;28.65;97805.00;5090951;28;20032;-77
2021/01/17 03:11:43;;;;;;;10.93;5.40;;;;;;;5.68;29.87;97795.34;5096803;28;20459;-77
2021/01/17 03:14:10;;;;;;;8.20;5.05;;;;;;;5.64;31.04;97819.69;5085575;28;20467;-77
2021/01/17 03:16:36;;;;;;;10.15;5.35;;;;;;;4.47;31.91;97813.22;5086458;28;20032;-77
2021/01/17 03:19:02;;;;;;;13.10;6.30;;;;;;;4.71;31.76;97810.13;5084980;28;20025;-77
2021/01/17 03:21:29;;;;;;;10.90;4.80;;;;;;;7.00;28.13;97817.13;5087191;28;20507;-77
2021/01/17 03:23:55;;;;;;;9.05;5.50;;;;;;;7.47;26.99;97819.41;5092171;28;20032;-77
2021/01/17 03:26:21;;;;;;;13.63;6.10;;;;;;;6.64;28.49;97823.00;5082815;28;20131;-77
2021/01/17 03:28:47;;;;;;;12.98;6.32;;;;;;;6.88;27.86;97825.97;5067722;28;20131;-77
2021/01/17 03:31:13;;;;;;;13.73;6.28;;;;;;;6.24;27.94;97836.06;5076464;28;20128;-76
2021/01/17 03:33:40;;;;;;;11.70;5.78;;;;;;;6.67;27.74;97827.81;5068570;28;20024;-76
2021/01/17 03:36:06;;;;;;;9.40;5.40;;;;;;;6.55;28.07;97836.66;5064429;28;20066;-76
2021/01/17 03:38:32;;;;;;;12.65;6.30;;;;;;;5.71;28.50;97847.25;5071524;28;20032;-77
2021/01/17 03:40:58;;;;;;;10.57;5.25;;;;;;;4.97;28.91;97821.91;5088479;28;20066;-77
2021/01/17 03:43:25;;;;;;;10.40;5.15;;;;;;;4.59;29.91;97839.81;5085283;28;20404;-77
2021/01/17 03:45:51;;;;;;;12.05;5.53;;;;;;;4.02;30.04;97842.31;5087145;28;20047;-76
2021/01/17 03:48:17;;;;;;;10.60;5.13;;;;;;;3.65;30.37;97844.53;5090608;28;20024;-76
2021/01/17 03:50:43;;;;;;;10.82;5.45;;;;;;;2.95;31.48;97849.53;5078302;28;20028;-77
2021/01/17 03:53:09;;;;;;;9.88;5.82;;;;;;;3.27;30.49;97842.09;5081627;28;20127;-77
2021/01/17 03:55:35;;;;;;;9.25;4.50;;;;;;;4.08;29.58;97846.50;5085110;28;20036;-77
2021/01/17 03:58:01;;;;;;;10.10;5.13;;;;;;;4.54;28.42;97851.63;5084562;28;20040;-76
2021/01/17 04:00:27;;;;;;;12.52;5.50;;;;;;;4.57;28.04;97850.19;5083551;28;20028;-76
2021/01/17 04:02:53;;;;;;;7.55;4.60;;;;;;;5.18;27.36;97855.59;5085531;28;20551;-77
2021/01/17 04:05:19;;;;;;;9.20;4.38;;;;;;;4.20;28.49;97860.34;5081295;28;20028;-76
2021/01/17 04:07:45;;;;;;;13.45;4.93;;;;;;;5.38;26.20;97859.66;5082126;28;20064;-76
2021/01/17 04:10:12;;;;;;;5.50;2.72;;;;;;;8.61;22.79;97849.88;5085843;28;20548;-77
2021/01/17 04:12:38;;;;;;;7.32;3.65;;;;;;;9.19;21.18;97856.19;5076744;28;20119;-77
2021/01/17 04:15:04;;;;;;;5.35;3.50;;;;;;;9.96;20.21;97863.34;5080277;28;20047;-77
2021/01/17 04:17:31;;;;;;;8.15;3.40;;;;;;;8.85;19.95;97857.38;5087302;28;20491;-76
2021/01/17 04:19:57;;;;;;;9.90;4.32;;;;;;;7.77;21.50;97865.84;5086716;28;20039;-77
2021/01/17 04:22:23;;;;;;;6.82;3.70;;;;;;;5.02;24.79;97873.44;5092655;28;20032;-77
2021/01/17 04:24:49;;;;;;;9.00;3.88;;;;;;;4.51;25.75;97882.13;5094408;28;20035;-77
2021/01/17 04:27:16;;;;;;;9.45;4.47;;;;;;;3.68;26.70;97881.94;5087544;28;20154;-77
2021/01/17 04:29:42;;;;;;;9.18;3.50;;;;;;;4.71;25.65;97872.66;5092947;28;20036;-77
2021/01/17 04:32:08;;;;;;;7.88;3.78;;;;;;;5.89;23.63;97886.22;5086696;28;20020;-77
2021/01/17 04:34:35;;;;;;;6.95;3.30;;;;;;;4.82;24.74;97891.13;5088221;28;20044;-77
2021/01/17 04:37:01;;;;;;;8.20;3.92;;;;;;;5.18;24.22;97885.50;5086790;28;20032;-77
2021/01/17 04:39:27;;;;;;;4.78;2.65;;;;;;;9.92;19.41;97873.44;5092525;28;20021;-77
2021/01/17 04:41:57;;;;;;;8.23;3.88;;;;;;;9.58;18.89;97878.25;5089816;28;20024;-77
2021/01/17 04:44:33;;;;;;;6.18;3.45;;;;;;;9.75;18.55;97885.44;5088373;28;20494;-77
2021/01/17 04:47:05;;;;;;;2.22;1.67;;;;;;;11.93;16.99;97871.47;5092391;28;20111;-77
2021/01/17 04:49:41;;;;;;;3.25;2.03;;;;;;;12.89;16.12;97879.78;5093556;28;20048;-77
2021/01/17 04:52:13;;;;;;;4.22;2.17;;;;;;;12.15;15.84;97890.06;5090354;28;20115;-77
2021/01/17 04:54:40;;;;;;;4.43;2.00;;;;;;;12.71;15.92;97884.16;5094209;28;20081;-77
2021/01/17 04:57:26;;;;;;;6.20;2.92;;;;;;;14.31;14.67;97894.84;5088284;28;20385;-77
2021/01/17 05:00:07;;;;;;;5.15;2.40;;;;;;;14.78;13.79;97908.09;5092427;28;20543;-77
2021/01/17 05:02:34;;;;;;;5.55;2.60;;;;;;;15.22;13.62;97907.03;5089823;28;20107;-76
2021/01/17 05:05:22;;;;;;;7.30;3.83;;;;;;;12.41;15.40;97906.75;5087994;28;20040;-77
2021/01/17 05:08:22;;;;;;;5.75;2.60;;;;;;;12.59;15.98;97914.59;5088941;28;20028;-77
2021/01/17 05:11:01;;;;;;;7.80;3.58;;;;;;;10.71;17.09;97917.34;5045740;28;20052;-77
2021/01/17 05:13:34;;;;;;;9.43;4.10;;;;;;;7.54;20.80;97922.69;5087435;28;20480;-77
2021/01/17 05:16:08;;;;;;;9.07;4.88;;;;;;;4.40;25.20;97937.84;5075528;28;20035;-77
2021/01/17 05:18:45;;;;;;;15.73;4.97;;;;;;;3.87;26.21;97942.31;5093163;28;20025;-77
2021/01/17 05:21:15;;;;;;;9.25;4.05;;;;;;;6.61;22.45;97935.44;5093170;28;20388;-77
2021/01/17 05:23:43;;;;;;;7.90;5.35;;;;;;;6.02;22.50;97946.00;5089724;28;20079;-77
2021/01/17 05:26:09;;;;;;;8.00;4.53;;;;;;;6.99;21.88;97955.47;5091664;28;20032;-77
2021/01/17 05:28:35;;;;;;;9.70;4.35;;;;;;;6.78;21.98;97960.00;5085485;28;20035;-76
2021/01/17 05:31:01;;;;;;;6.35;2.67;;;;;;;10.62;18.60;97951.59;5094700;28;20032;-77
2021/01/17 05:33:31;;;;;;;10.48;3.90;;;;;;;10.72;17.86;97946.41;5092008;28;20399;-77
2021/01/17 05:35:59;;;;;;;8.90;4.50;;;;;;;9.15;19.27;97960.13;5082686;28;20040;-77
2021/01/17 05:38:26;;;;;;;5.32;2.92;;;;;;;11.78;17.11;97963.06;5082996;28;20020;-77
2021/01/17 05:40:52;;;;;;;12.38;5.10;;;;;;;11.18;16.81;97964.16;5081998;28;20040;-77
2021/01/17 05:43:19;;;;;;;11.20;4.95;;;;;;;9.70;18.45;97971.44;5072576;28;20442;-77
2021/01/17 05:45:45;;;;;;;12.35;4.80;;;;;;;10.71;17.79;97972.25;5089545;28;20044;-77
2021/01/17 05:48:12;;;;;;;10.27;4.13;;;;;;;10.18;18.11;97965.16;5085019;28;20496;-77
2021/01/17 05:50:43;;;;;;;9.02;3.55;;;;;;;10.78;17.99;97963.44;5090653;28;20024;-77
2021/01/17 05:53:09;;;;;;;8.60;4.15;;;;;;;10.60;17.65;97970.34;5088738;28;20391;-77
2021/01/17 05:55:42;;;;;;;7.13;3.45;;;;;;;12.91;16.03;97962.88;5091417;28;20036;-76
2021/01/17 05:58:23;;;;;;;6.60;3.58;;;;;;;13.83;14.99;97977.28;5088271;28;20770;-77
2021/01/17 06:00:51;;;;;;;8.52;4.07;;;;;;;14.29;14.40;97975.25;5087007;28;20089;-77
2021/01/17 06:03:31;;;;;;;9.38;3.92;;;;;;;14.16;14.48;97982.16;5088214;28;20499;-77
2021/01/17 06:06:02;;;;;;;7.75;3.50;;;;;;;14.43;14.57;97985.75;5089640;28;20032;-76
2021/01/17 06:08:29;;;;;;;10.20;4.30;;;;;;;14.67;14.21;97985.34;5092703;28;20496;-77
2021/01/17 06:11:06;;;;;;;6.47;2.95;;;;;;;15.21;13.82;97996.72;5090671;28;20119;-77
2021/01/17 06:13:35;;;;;;;9.05;4.05;;;;;;;14.79;13.93;97998.13;5074946;28;20166;-77
2021/01/17 06:16:01;;;;;;;10.48;4.25;;;;;;;14.23;14.40;97996.09;5074693;28;20028;-77
2021/01/17 06:18:29;;;;;;;7.72;3.05;;;;;;;14.79;14.17;97995.34;5078247;28;20028;-77
2021/01/17 06:20:59;;;;;;;11.20;3.67;;;;;;;15.21;13.70;98006.97;5079431;28;20036;-77
2021/01/17 06:23:26;;;;;;;7.75;4.05;;;;;;;15.36;13.64;98000.44;5081891;28;20071;-77
2021/01/17 06:26:10;;;;;;;5.93;3.25;;;;;;;15.72;13.26;98010.75;5076654;28;20602;-76
2021/01/17 06:28:41;;;;;;;4.82;2.70;;;;;;;16.13;13.08;98010.72;5078112;28;20432;-76
2021/01/17 06:31:08;;;;;;;;;;;;;;;14.43;13.80;98016.94;5081430;28;20055;-77
2021/01/17 06:33:35;;;;;;;6.97;3.83;;;;;;;14.51;14.08;98018.66;5081208;28;19927;-77
2021/01/17 06:36:16;;;;;;;6.47;3.28;;;;;;;14.89;13.99;98016.84;5080461;28;20048;-76
2021/01/17 06:38:44;;;;;;;5.78;3.58;;;;;;;15.22;13.78;98014.88;5077748;28;20082;-76
2021/01/17 06:41:11;;;;;;;7.85;4.38;;;;;;;14.24;14.28;98018.94;5077301;28;20040;-77
2021/01/17 06:43:40;;;;;;;5.60;2.75;;;;;;;14.79;13.88;98032.09;5082140;28;20032;-77
2021/01/17 06:46:07;;;;;;;10.73;4.25;;;;;;;14.73;13.91;98027.22;5079678;28;20107;-77
2021/01/17 06:48:33;;;;;;;8.63;4.57;;;;;;;13.91;14.59;98036.13;5079729;28;20032;-77
2021/01/17 06:51:19;;;;;;;19.38;7.03;;;;;;;11.46;16.50;98047.41;5085169;28;20098;-77
2021/01/17 06:53:53;;;;;;;20.15;7.13;;;;;;;8.39;19.41;98063.59;5083415;28;20058;-77
2021/01/17 06:56:19;;;;;;;19.75;7.82;;;;;;;6.34;22.08;98072.09;5081657;28;20037;-77
2021/01/17 06:58:46;;;;;;;23.25;8.63;;;;;;;6.20;22.42;98070.28;5078938;28;20507;-77
2021/01/17 07:01:14;;;;;;;18.02;7.88;;;;;;;7.48;21.22;98064.09;5082687;28;20032;-77
2021/01/17 07:04:13;;;;;;;21.85;7.60;;;;;;;8.58;19.93;98061.25;5080959;28;20032;-76
2021/01/17 07:06:51;;;;;;;12.77;5.55;;;;;;;11.41;17.29;98063.34;5079619;28;20077;-77
2021/01/17 07:09:42;;;;;;;9.80;4.53;;;;;;;12.97;15.42;98058.69;5079741;28;20032;-77
2021/01/17 07:12:40;;;;;;;15.30;6.40;;;;;;;10.79;17.15;98077.59;5081099;28;20032;-77
2021/01/17 07:15:08;;;;;;;14.48;6.57;;;;;;;10.30;17.73;98085.88;5088167;28;20110;-77
2021/01/17 07:17:37;;;;;;;17.35;7.75;;;;;;;9.36;18.67;98088.81;5078281;28;20396;-77
2021/01/17 07:20:14;;;;;;;10.18;4.80;;;;;;;11.35;16.99;98082.03;5084652;28;20034;-77
2021/01/17 07:22:44;;;;;;;12.18;5.60;;;;;;;10.40;17.66;98079.94;5083995;28;20040;-77
2021/01/17 07:25:12;;;;;;;9.52;4.50;;;;;;;12.03;16.31;98091.00;5088025;28;20503;-77
2021/01/17 07:27:44;;;;;;;8.85;4.93;;;;;;;12.50;15.55;98091.00;5087486;28;20040;-77
2021/01/17 07:30:18;;;;;;;10.65;5.88;;;;;;;11.43;15.95;98099.53;5090250;28;20024;-77
2021/01/17 07:32:54;;;;;;;13.95;6.05;;;;;;;11.78;16.48;98101.34;5081013;28;20174;-77
2021/01/17 07:35:26;;;;;;;7.57;4.15;;;;;;;12.43;15.78;98108.16;5090304;28;20047;-77
2021/01/17 07:37:56;;;;;;;9.77;4.05;;;;;;;12.99;15.29;98103.19;5087322;28;20077;-77
2021/01/17 07:40:49;;;;;;;11.23;5.35;;;;;;;12.28;15.68;98113.66;5090906;28;20131;-77
2021/01/17 07:43:10;;;;;;;12.15;4.95;;;;;;;11.94;16.32;98111.59;5086824;28;20036;-77
2021/01/17 07:45:41;;;;;;;18.67;7.22;;;;;;;11.73;15.94;98111.81;5072278;28;20571;-76
2021/01/17 07:48:08;;;;;;;;;;;;;;;11.66;16.16;98120.63;5086200;28;20032;-76
2021/01/17 07:50:40;;;;;;;10.38;4.88;;;;;;;12.19;15.88;98126.78;5089939;28;19927;-76
2021/01/17 07:53:28;;;;;;;12.18;6.15;;;;;;;11.88;16.08;98121.25;5081704;28;20056;-76
2021/01/17 07:56:15;;;;;;;18.85;8.10;;;;;;;10.12;17.57;98135.81;5083308;28;20119;-77
2021/01/17 07:58:48;;;;;;;11.88;4.97;;;;;;;12.77;15.68;98123.13;5081107;28;20553;-76
2021/01/17 08:01:35;;;;;;;12.63;5.10;;;;;;;14.07;14.33;98119.63;5088860;28;20492;-76
2021/01/17 08:04:07;;;;;;;8.52;4.25;;;;;;;15.03;13.82;98120.09;5082896;28;20029;-76
2021/01/17 08:06:36;;;;;;;9.98;4.18;;;;;;;15.90;12.93;98122.47;5080243;28;20036;-78
2021/01/17 08:09:07;;;;;;;8.48;4.10;;;;;;;16.51;12.26;98126.66;5087968;28;20111;-77
2021/01/17 08:11:57;;;;;;;9.30;4.78;;;;;;;15.78;12.38;98127.44;5066193;28;20453;-76
2021/01/17 08:14:26;;;;;;;11.90;5.65;;;;;;;15.30;12.94;98120.06;5083902;28;20093;-77
2021/01/17 08:17:20;;;;;;;11.20;4.97;;;;;;;15.20;13.25;98130.63;5088757;28;20045;-78
2021/01/17 08:19:54;;;;;;;11.05;5.63;;;;;;;15.50;12.55;98127.88;5087794;28;20033;-77
2021/01/17 08:22:23;;;;;;;12.32;5.93;;;;;;;14.95;13.12;98123.94;5085402;28;20488;-77
2021/01/17 08:24:53;;;;;;;10.10;5.68;;;;;;;13.08;14.54;98130.59;5086462;28;20496;-78
2021/01/17 08:27:41;;;;;;;9.98;5.65;;;;;;;13.74;13.93;98124.91;5088727;28;20044;-77
2021/01/17 08:30:17;;;;;;;9.82;3.97;;;;;;;14.92;13.41;98124.66;5067473;28;20052;-76
2021/01/17 08:32:49;;;;;;;10.45;5.15;;;;;;;15.32;12.85;98129.59;5089118;28;20228;-77
2021/01/17 08:35:17;;;;;;;12.90;5.93;;;;;;;13.40;14.05;98142.28;5087902;28;20490;-76
2021/01/17 08:37:54;;;;;;;7.35;3.50;;;;;;;14.27;14.08;98146.03;5088825;28;20046;-77
2021/01/17 08:40:29;;;;;;;7.53;3.80;;;;;;;15.15;13.24;98139.22;5085778;28;20055;-77
2021/01/17 08:42:57;;;;;;;6.45;3.30;;;;;;;16.21;12.40;98145.34;5091485;28;20032;-77
2021/01/17 08:45:23;;;;;;;9.85;4.30;;;;;;;16.75;12.02;98156.59;5087890;28;20039;-76
2021/01/17 08:47:50;;;;;;;10.40;4.47;;;;;;;17.15;11.71;98153.72;5082422;28;20042;-77
2021/01/17 08:50:33;;;;;;;6.60;4.15;;;;;;;17.23;11.89;98166.47;5087239;28;20032;-77
2021/01/17 08:53:15;;;;;;;11.30;5.35;;;;;;;17.53;11.62;98168.25;5082814;28;20039;-77
2021/01/17 08:55:49;;;;;;;8.27;4.60;;;;;;;17.93;11.54;98165.28;5066104;28;20429;-77
2021/01/17 08:58:28;;;;;;;12.02;5.93;;;;;;;17.91;11.57;98173.22;5082983;28;20488;-77
2021/01/17 09:00:57;;;;;;;10.75;5.07;;;;;;;18.21;11.14;98175.72;5080762;28;20118;-77
2021/01/17 09:03:30;;;;;;;10.88;5.68;;;;;;;18.30;11.87;98182.50;5092241;28;20531;-78
2021/01/17 09:05:58;;;;;;;10.40;4.22;;;;;;;18.58;11.66;98190.94;5090587;28;20051;-77
2021/01/17 09:08:25;;;;;;;10.27;3.92;;;;;;;18.63;11.50;98189.75;5090880;28;20430;-77
2021/01/17 09:10:52;;;;;;;10.80;5.10;;;;;;;18.87;11.38;98193.75;5089797;28;20056;-77
2021/01/17 09:13:26;;;;;;;15.85;7.35;;;;;;;17.50;12.02;98192.03;5091438;28;20032;-77
2021/01/17 09:16:00;;;;;;;9.52;4.68;;;;;;;17.52;12.65;98206.34;5084545;28;20064;-77
2021/01/17 09:18:28;;;;;;;11.45;4.50;;;;;;;17.63;11.82;98209.19;5075508;28;20032;-77
2021/01/17 09:20:56;;;;;;;10.18;5.20;;;;;;;16.92;12.15;98208.63;5089778;28;20040;-77
2021/01/17 09:23:23;;;;;;;9.82;5.13;;;;;;;15.69;13.17;98213.53;5093397;28;20109;-76
2021/01/17 09:25:57;;;;;;;10.57;5.20;;;;;;;15.94;13.68;98211.09;5089121;28;20047;-77
2021/01/17 09:28:23;;;;;;;6.97;4.13;;;;;;;16.82;12.86;98214.09;5092498;28;20040;-77
2021/01/17 09:30:51;;;;;;;18.67;7.70;;;;;;;15.17;13.49;98216.28;5091930;28;20495;-77
2021/01/17 09:33:18;;;;;;;15.55;6.82;;;;;;;14.29;14.57;98223.78;5087945;28;20091;-76
2021/01/17 09:35:46;;;;;;;13.13;7.10;;;;;;;14.78;14.23;98225.88;5082222;28;20024;-78
2021/01/17 09:38:14;;;;;;;12.05;6.25;;;;;;;16.00;13.36;98222.63;5088176;28;20036;-77
2021/01/17 09:40:45;;;;;;;11.40;5.57;;;;;;;16.71;13.07;98225.06;5085530;28;20048;-77
2021/01/17 09:43:12;;;;;;;12.95;5.22;;;;;;;17.22;12.96;98216.81;5087162;28;20387;-77
2021/01/17 09:45:38;;;;;;;11.98;6.32;;;;;;;17.79;11.98;98221.56;5092780;28;20051;-77
2021/01/17 09:48:05;;;;;;;8.95;4.85;;;;;;;18.05;12.35;98220.50;5089145;28;20118;-77
2021/01/17 09:50:36;;;;;;;16.27;8.40;;;;;;;16.10;12.68;98224.75;5092656;28;20020;-76
2021/01/17 09:53:09;;;;;;;21.25;9.68;;;;;;;14.12;13.89;98229.75;5093966;28;20036;-77
2021/01/17 09:55:40;;;;;;;14.45;6.70;;;;;;;14.50;14.76;98238.03;5092953;28;20448;-76
2021/01/17 09:58:09;;;;;;;13.13;5.97;;;;;;;15.88;14.06;98231.97;5075079;28;20115;-79
2021/01/17 10:00:36;;;;;;;10.57;5.70;;;;;;;16.97;13.20;98224.91;5076027;28;20045;-79
2021/01/17 10:03:10;;;;;;;11.80;5.07;;;;;;;17.79;12.41;98229.91;5069257;28;20396;-78
2021/01/17 10:05:37;;;;;;;12.02;6.20;;;;;;;18.44;12.44;98227.00;5083391;28;20029;-78
2021/01/17 10:08:08;;;;;;;14.77;7.45;;;;;;;18.79;11.86;98231.09;5082756;28;20027;-77
2021/01/17 10:10:39;;;;;;;9.13;5.10;;;;;;;19.02;11.42;98228.75;5066396;28;20044;-78
2021/01/17 10:13:07;;;;;;;10.80;5.60;;;;;;;19.05;11.72;98242.66;5089803;28;20028;-78
2021/01/17 10:15:34;;;;;;;10.55;5.13;;;;;;;19.20;11.40;98232.34;5079583;28;20499;-78
2021/01/17 10:18:00;;;;;;;12.13;5.43;;;;;;;18.89;11.40;98236.69;5088180;28;20028;-78
2021/01/17 10:20:31;;;;;;;12.50;6.20;;;;;;;18.09;11.96;98240.75;5073884;28;20126;-77
2021/01/17 10:23:06;;;;;;;13.82;5.97;;;;;;;17.65;11.89;98242.91;5074633;28;20060;-78
2021/01/17 10:25:34;;;;;;;13.13;6.63;;;;;;;18.20;12.24;98247.19;5078631;28;20029;-78
2021/01/17 10:28:08;;;;;;;11.93;6.13;;;;;;;18.10;11.79;98252.69;5074736;28;20039;-78
2021/01/17 10:30:37;;;;;;;10.23;5.43;;;;;;;18.12;12.07;98248.31;5073800;28;20029;-77
2021/01/17 10:33:08;;;;;;;14.48;6.60;;;;;;;18.02;11.85;98264.97;5074359;28;20039;-78
2021/01/17 10:35:42;;;;;;;13.90;6.40;;;;;;;18.11;12.39;98260.63;5089919;28;20085;-78
2021/01/17 10:38:09;;;;;;;12.45;5.45;;;;;;;18.07;12.13;98264.56;5074376;28;20032;-78
2021/01/17 10:40:36;;;;;;;16.35;5.75;;;;;;;18.40;12.13;98262.34;5082459;28;24100;-78
2021/01/17 10:43:05;;;;;;;7.72;3.70;;;;;;;18.83;11.36;98260.53;5089081;28;20040;-78
2021/01/17 10:45:33;;;;;;;14.23;7.13;;;;;;;18.52;11.58;98262.03;5058761;28;20055;-78
2021/01/17 10:48:07;;;;;;;13.73;6.03;;;;;;;17.95;11.95;98265.69;5076095;28;20111;-78
2021/01/17 10:51:12;;;;;;;17.02;7.40;;;;;;;17.98;11.84;98259.38;5086149;28;20032;-78
2021/01/17 10:53:46;;;;;;;17.48;8.00;;;;;;;16.90;12.60;98258.13;5093388;28;20024;-78
2021/01/17 10:56:16;;;;;;;16.70;6.55;;;;;;;17.61;12.50;98265.09;5094061;28;20032;-78
2021/01/17 10:58:44;;;;;;;13.07;5.80;;;;;;;18.08;12.24;98260.59;5083153;28;20090;-78
2021/01/17 11:01:11;;;;;;;10.20;5.53;;;;;;;18.03;12.04;98261.78;5073888;28;20032;-78
2021/01/17 11:03:39;;;;;;;13.70;5.95;;;;;;;18.32;12.25;98262.72;5078189;28;20408;-78
2021/01/17 11:06:10;;;;;;;17.17;7.88;;;;;;;17.79;12.13;98271.56;5068192;28;20079;-78
2021/01/17 11:08:57;;;;;;;14.30;6.72;;;;;;;16.21;12.31;98278.31;5073837;28;20067;-78
2021/01/17 11:11:25;;;;;;;11.77;6.20;;;;;;;17.60;12.15;98274.59;5084849;28;20062;-78
2021/01/17 11:14:02;;;;;;;15.95;6.28;;;;;;;18.08;11.70;98269.75;5087023;28;20028;-78
2021/01/17 11:16:53;;;;;;;16.60;6.82;;;;;;;18.56;11.56;98262.81;5082029;28;20056;-78
2021/01/17 11:19:31;;;;;;;16.40;7.28;;;;;;;19.21;11.20;98262.53;5070400;28;20059;-78
2021/01/17 11:21:58;;;;;;;14.52;6.75;;;;;;;19.37;11.32;98261.41;5092162;28;20059;-78
2021/01/17 11:24:33;;;;;;;15.02;6.45;;;;;;;19.58;10.53;98264.94;5091343;28;20024;-78
2021/01/17 11:27:10;;;;;;;19.92;7.47;;;;;;;19.46;10.55;98259.00;5092563;28;20094;-78
2021/01/17 11:29:37;;;;;;;14.40;7.07;;;;;;;19.41;11.13;98257.41;5091623;28;20484;-78
2021/01/17 11:32:03;;;;;;;12.15;6.10;;;;;;;19.75;11.05;98263.34;5084794;28;20039;-77
2021/01/17 11:34:34;;;;;;;12.00;6.38;;;;;;;19.98;10.72;98266.47;5088861;28;20484;-78
2021/01/17 11:37:00;;;;;;;;;;;;;;;20.21;9.72;98258.44;5062297;28;20391;-78
2021/01/17 11:39:26;;;;;;;10.60;5.57;;;;;;;20.33;10.33;98260.00;5077944;28;20342;-78
2021/01/17 11:41:55;;;;;;;14.57;6.03;;;;;;;20.34;10.47;98253.25;5073181;28;20044;-78
2021/01/17 11:44:25;;;;;;;10.45;4.32;;;;;;;20.28;10.49;98261.22;5088801;28;20116;-78
2021/01/17 11:46:52;;;;;;;19.20;6.13;;;;;;;19.67;10.02;98265.34;5092865;28;20028;-78
2021/01/17 11:49:23;;;;;;;16.30;6.35;;;;;;;19.23;10.71;98257.38;5084824;28;20036;-78